sensor_id;sensor_type;location;lat;lon;timestamp;pressure;altitude;pressure_sealevel;temperature;humidity
67545;BME280;54380;47.770;11.150;2022-11-12T00:01:03;96327.22;;;4.80;66.83
67545;BME280;54380;47.770;11.150;2022-11-12T00:03:50;96329.31;;;4.84;66.34
67545;BME280;54380;47.770;11.150;2022-11-12T00:06:36;96327.50;;;4.85;65.65
67545;BME280;54380;47.770;11.150;2022-11-12T00:09:21;96321.00;;;4.81;65.73
67545;BME280;54380;47.770;11.150;2022-11-12T00:12:07;96317.44;;;4.74;65.33
67545;BME280;54380;47.770;11.150;2022-11-12T00:14:52;96324.69;;;4.72;65.70
67545;BME280;54380;47.770;11.150;2022-11-12T00:17:37;96316.19;;;4.70;66.17
67545;BME280;54380;47.770;11.150;2022-11-12T00:20:24;96321.97;;;4.65;66.23
67545;BME280;54380;47.770;11.150;2022-11-12T00:23:09;96324.81;;;4.55;66.40
67545;BME280;54380;47.770;11.150;2022-11-12T00:25:58;96331.19;;;4.53;66.58
67545;BME280;54380;47.770;11.150;2022-11-12T00:28:43;96324.88;;;4.47;66.37
67545;BME280;54380;47.770;11.150;2022-11-12T00:31:28;96328.50;;;4.46;67.10
67545;BME280;54380;47.770;11.150;2022-11-12T00:34:13;96329.66;;;4.44;67.19
67545;BME280;54380;47.770;11.150;2022-11-12T00:37:00;96343.19;;;4.47;67.32
67545;BME280;54380;47.770;11.150;2022-11-12T00:39:46;96335.00;;;4.50;67.67
67545;BME280;54380;47.770;11.150;2022-11-12T00:42:31;96340.16;;;4.58;67.59
67545;BME280;54380;47.770;11.150;2022-11-12T00:45:16;96338.44;;;4.66;67.59
67545;BME280;54380;47.770;11.150;2022-11-12T00:48:02;96321.88;;;4.73;67.33
67545;BME280;54380;47.770;11.150;2022-11-12T00:50:47;96321.34;;;4.78;67.62
67545;BME280;54380;47.770;11.150;2022-11-12T00:53:33;96332.09;;;4.83;67.42
67545;BME280;54380;47.770;11.150;2022-11-12T00:56:19;96332.53;;;4.87;67.28
67545;BME280;54380;47.770;11.150;2022-11-12T00:59:04;96332.81;;;4.92;67.33
67545;BME280;54380;47.770;11.150;2022-11-12T01:01:49;96338.16;;;4.98;67.16
67545;BME280;54380;47.770;11.150;2022-11-12T01:04:34;96339.59;;;5.01;67.09
67545;BME280;54380;47.770;11.150;2022-11-12T01:07:19;96332.41;;;5.03;67.04
67545;BME280;54380;47.770;11.150;2022-11-12T01:10:06;96331.41;;;5.04;67.41
67545;BME280;54380;47.770;11.150;2022-11-12T01:12:51;96337.44;;;5.04;67.49
67545;BME280;54380;47.770;11.150;2022-11-12T01:15:39;96338.44;;;5.03;67.52
67545;BME280;54380;47.770;11.150;2022-11-12T01:18:24;96345.28;;;5.04;67.20
67545;BME280;54380;47.770;11.150;2022-11-12T01:21:10;96342.50;;;5.06;66.84
67545;BME280;54380;47.770;11.150;2022-11-12T01:23:55;96345.28;;;5.04;67.04
67545;BME280;54380;47.770;11.150;2022-11-12T01:26:42;96338.44;;;5.03;67.06
67545;BME280;54380;47.770;11.150;2022-11-12T01:29:27;96340.06;;;5.04;67.20
67545;BME280;54380;47.770;11.150;2022-11-12T01:32:12;96335.81;;;5.03;67.23
67545;BME280;54380;47.770;11.150;2022-11-12T01:34:57;96324.53;;;5.03;67.13
67545;BME280;54380;47.770;11.150;2022-11-12T01:37:42;96329.59;;;5.04;66.82
67545;BME280;54380;47.770;11.150;2022-11-12T01:40:28;96321.94;;;5.03;67.38
67545;BME280;54380;47.770;11.150;2022-11-12T01:43:14;96312.28;;;5.03;67.13
67545;BME280;54380;47.770;11.150;2022-11-12T01:45:59;96317.31;;;5.05;66.52
67545;BME280;54380;47.770;11.150;2022-11-12T01:48:46;96314.69;;;5.05;67.25
67545;BME280;54380;47.770;11.150;2022-11-12T01:51:33;96313.25;;;5.02;66.76
67545;BME280;54380;47.770;11.150;2022-11-12T01:54:20;96315.84;;;5.02;67.28
67545;BME280;54380;47.770;11.150;2022-11-12T01:57:05;96308.00;;;5.02;66.92
67545;BME280;54380;47.770;11.150;2022-11-12T01:59:55;96305.38;;;5.02;66.87
67545;BME280;54380;47.770;11.150;2022-11-12T02:02:42;96291.50;;;5.02;67.03
67545;BME280;54380;47.770;11.150;2022-11-12T02:05:29;96301.16;;;5.01;67.34
67545;BME280;54380;47.770;11.150;2022-11-12T02:08:15;96303.94;;;5.00;66.94
67545;BME280;54380;47.770;11.150;2022-11-12T02:11:08;96310.03;;;5.00;66.81
67545;BME280;54380;47.770;11.150;2022-11-12T02:13:54;96303.94;;;5.00;66.65
67545;BME280;54380;47.770;11.150;2022-11-12T02:16:44;96301.16;;;5.01;66.44
67545;BME280;54380;47.770;11.150;2022-11-12T02:19:29;96305.59;;;5.01;66.72
67545;BME280;54380;47.770;11.150;2022-11-12T02:22:16;96299.72;;;4.99;67.00
67545;BME280;54380;47.770;11.150;2022-11-12T02:25:01;96290.25;;;4.98;66.54
67545;BME280;54380;47.770;11.150;2022-11-12T02:27:46;96287.97;;;4.95;66.35
67545;BME280;54380;47.770;11.150;2022-11-12T02:30:37;96276.44;;;4.89;66.44
67545;BME280;54380;47.770;11.150;2022-11-12T02:33:22;96282.03;;;4.86;66.61
67545;BME280;54380;47.770;11.150;2022-11-12T02:36:08;96287.91;;;4.88;66.77
67545;BME280;54380;47.770;11.150;2022-11-12T02:38:56;96289.69;;;4.88;66.68
67545;BME280;54380;47.770;11.150;2022-11-12T02:41:41;96290.06;;;4.84;66.52
67545;BME280;54380;47.770;11.150;2022-11-12T02:44:26;96292.84;;;4.83;66.56
67545;BME280;54380;47.770;11.150;2022-11-12T02:47:12;96299.09;;;4.82;66.32
67545;BME280;54380;47.770;11.150;2022-11-12T02:49:56;96291.75;;;4.77;66.17
67545;BME280;54380;47.770;11.150;2022-11-12T02:52:42;96297.69;;;4.71;66.94
67545;BME280;54380;47.770;11.150;2022-11-12T02:55:28;96291.03;;;4.69;66.99
67545;BME280;54380;47.770;11.150;2022-11-12T02:58:13;96293.66;;;4.69;67.29
67545;BME280;54380;47.770;11.150;2022-11-12T03:00:59;96285.63;;;4.70;67.16
67545;BME280;54380;47.770;11.150;2022-11-12T03:03:44;96286.25;;;4.72;67.06
67545;BME280;54380;47.770;11.150;2022-11-12T03:06:29;96291.84;;;4.69;66.88
67545;BME280;54380;47.770;11.150;2022-11-12T03:09:14;96279.13;;;4.66;67.03
67545;BME280;54380;47.770;11.150;2022-11-12T03:12:01;96281.91;;;4.65;67.04
67545;BME280;54380;47.770;11.150;2022-11-12T03:14:46;96285.97;;;4.67;67.53
67545;BME280;54380;47.770;11.150;2022-11-12T03:17:32;96283.00;;;4.70;67.73
67545;BME280;54380;47.770;11.150;2022-11-12T03:20:18;96279.22;;;4.73;67.37
67545;BME280;54380;47.770;11.150;2022-11-12T03:23:03;96284.09;;;4.76;67.17
67545;BME280;54380;47.770;11.150;2022-11-12T03:25:49;96282.09;;;4.78;67.78
67545;BME280;54380;47.770;11.150;2022-11-12T03:28:35;96277.53;;;4.80;67.08
67545;BME280;54380;47.770;11.150;2022-11-12T03:31:21;96280.13;;;4.80;67.51
67545;BME280;54380;47.770;11.150;2022-11-12T03:34:07;96285.00;;;4.83;67.14
67545;BME280;54380;47.770;11.150;2022-11-12T03:36:53;96283.03;;;4.85;67.26
67545;BME280;54380;47.770;11.150;2022-11-12T03:39:38;96286.09;;;4.89;67.44
67545;BME280;54380;47.770;11.150;2022-11-12T03:42:23;96295.09;;;4.86;66.49
67545;BME280;54380;47.770;11.150;2022-11-12T03:45:09;96289.16;;;4.77;66.71
67545;BME280;54380;47.770;11.150;2022-11-12T03:47:55;96293.09;;;4.73;66.35
67545;BME280;54380;47.770;11.150;2022-11-12T03:50:41;96294.28;;;4.71;66.50
67545;BME280;54380;47.770;11.150;2022-11-12T03:53:26;96296.28;;;4.69;66.92
67545;BME280;54380;47.770;11.150;2022-11-12T03:56:11;96301.22;;;4.64;66.35
67545;BME280;54380;47.770;11.150;2022-11-12T03:58:57;96300.38;;;4.63;66.99
67545;BME280;54380;47.770;11.150;2022-11-12T04:01:43;96295.34;;;4.61;66.86
67545;BME280;54380;47.770;11.150;2022-11-12T04:04:29;96291.09;;;4.60;67.07
67545;BME280;54380;47.770;11.150;2022-11-12T04:07:33;96295.53;;;4.60;67.53
67545;BME280;54380;47.770;11.150;2022-11-12T04:10:37;96302.41;;;4.61;67.80
67545;BME280;54380;47.770;11.150;2022-11-12T04:13:23;96304.66;;;4.64;68.08
67545;BME280;54380;47.770;11.150;2022-11-12T04:16:15;96315.38;;;4.69;67.69
67545;BME280;54380;47.770;11.150;2022-11-12T04:19:21;96303.94;;;4.70;67.20
67545;BME280;54380;47.770;11.150;2022-11-12T04:22:24;96313.38;;;4.71;66.58
67545;BME280;54380;47.770;11.150;2022-11-12T04:25:09;96317.38;;;4.67;66.51
67545;BME280;54380;47.770;11.150;2022-11-12T04:28:13;96330.16;;;4.62;66.63
67545;BME280;54380;47.770;11.150;2022-11-12T04:30:58;96333.28;;;4.57;66.68
67545;BME280;54380;47.770;11.150;2022-11-12T04:33:43;96323.19;;;4.54;67.00
67545;BME280;54380;47.770;11.150;2022-11-12T04:36:29;96320.13;;;4.51;66.70
67545;BME280;54380;47.770;11.150;2022-11-12T04:39:15;96325.16;;;4.52;66.94
67545;BME280;54380;47.770;11.150;2022-11-12T04:42:00;96325.72;;;4.48;66.96
67545;BME280;54380;47.770;11.150;2022-11-12T04:45:05;96327.34;;;4.49;67.25
67545;BME280;54380;47.770;11.150;2022-11-12T04:47:50;96331.41;;;4.51;66.87
67545;BME280;54380;47.770;11.150;2022-11-12T04:50:35;96321.94;;;4.50;67.17
67545;BME280;54380;47.770;11.150;2022-11-12T04:53:22;96321.47;;;4.47;66.43
67545;BME280;54380;47.770;11.150;2022-11-12T04:56:08;96325.59;;;4.41;66.63
67545;BME280;54380;47.770;11.150;2022-11-12T04:58:53;96322.69;;;4.36;66.49
67545;BME280;54380;47.770;11.150;2022-11-12T05:01:38;96322.06;;;4.34;66.92
67545;BME280;54380;47.770;11.150;2022-11-12T05:04:23;96323.22;;;4.31;66.87
67545;BME280;54380;47.770;11.150;2022-11-12T05:07:11;96330.59;;;4.28;66.91
67545;BME280;54380;47.770;11.150;2022-11-12T05:09:59;96317.88;;;4.25;67.19
67545;BME280;54380;47.770;11.150;2022-11-12T05:12:44;96319.22;;;4.21;66.42
67545;BME280;54380;47.770;11.150;2022-11-12T05:15:29;96316.16;;;4.17;67.15
67545;BME280;54380;47.770;11.150;2022-11-12T05:18:14;96312.09;;;4.14;67.37
67545;BME280;54380;47.770;11.150;2022-11-12T05:20:59;96308.81;;;4.12;67.67
67545;BME280;54380;47.770;11.150;2022-11-12T05:24:04;96311.44;;;4.12;67.52
67545;BME280;54380;47.770;11.150;2022-11-12T05:26:51;96314.69;;;4.14;67.45
67545;BME280;54380;47.770;11.150;2022-11-12T05:29:36;96313.69;;;4.15;67.57
67545;BME280;54380;47.770;11.150;2022-11-12T05:32:21;96315.94;;;4.18;68.26
67545;BME280;54380;47.770;11.150;2022-11-12T05:35:06;96302.56;;;4.22;67.38
67545;BME280;54380;47.770;11.150;2022-11-12T05:37:51;96305.63;;;4.25;67.25
67545;BME280;54380;47.770;11.150;2022-11-12T05:40:37;96304.19;;;4.23;67.00
67545;BME280;54380;47.770;11.150;2022-11-12T05:43:23;96312.09;;;4.14;66.73
67545;BME280;54380;47.770;11.150;2022-11-12T05:46:08;96305.91;;;4.07;66.19
67545;BME280;54380;47.770;11.150;2022-11-12T05:48:54;96302.19;;;4.02;66.77
67545;BME280;54380;47.770;11.150;2022-11-12T05:51:40;96306.97;;;3.98;66.78
67545;BME280;54380;47.770;11.150;2022-11-12T05:54:25;96304.72;;;3.95;67.46
67545;BME280;54380;47.770;11.150;2022-11-12T05:57:10;96309.75;;;3.96;67.54
67545;BME280;54380;47.770;11.150;2022-11-12T05:59:57;96315.97;;;3.95;67.43
67545;BME280;54380;47.770;11.150;2022-11-12T06:02:42;96317.44;;;3.98;67.31
67545;BME280;54380;47.770;11.150;2022-11-12T06:05:27;96322.81;;;3.96;68.07
67545;BME280;54380;47.770;11.150;2022-11-12T06:08:12;96326.88;;;3.99;67.77
67545;BME280;54380;47.770;11.150;2022-11-12T06:10:58;96327.88;;;3.98;67.45
67545;BME280;54380;47.770;11.150;2022-11-12T06:13:43;96325.63;;;3.95;68.16
67545;BME280;54380;47.770;11.150;2022-11-12T06:16:30;96329.03;;;3.95;68.31
67545;BME280;54380;47.770;11.150;2022-11-12T06:19:15;96331.28;;;3.99;68.01
67545;BME280;54380;47.770;11.150;2022-11-12T06:22:01;96336.97;;;4.02;67.29
67545;BME280;54380;47.770;11.150;2022-11-12T06:24:46;96333.56;;;4.02;67.37
67545;BME280;54380;47.770;11.150;2022-11-12T06:27:31;96340.59;;;4.01;67.26
67545;BME280;54380;47.770;11.150;2022-11-12T06:30:16;96334.06;;;3.97;68.07
67545;BME280;54380;47.770;11.150;2022-11-12T06:33:09;96338.13;;;4.00;67.41
67545;BME280;54380;47.770;11.150;2022-11-12T06:35:55;96344.00;;;4.02;67.35
67545;BME280;54380;47.770;11.150;2022-11-12T06:38:40;96351.84;;;4.02;67.36
67545;BME280;54380;47.770;11.150;2022-11-12T06:41:27;96352.50;;;4.04;67.38
67545;BME280;54380;47.770;11.150;2022-11-12T06:44:12;96349.69;;;4.05;67.58
67545;BME280;54380;47.770;11.150;2022-11-12T06:47:04;96349.69;;;4.05;67.79
67545;BME280;54380;47.770;11.150;2022-11-12T06:49:51;96348.53;;;4.08;67.49
67545;BME280;54380;47.770;11.150;2022-11-12T06:52:36;96351.16;;;4.08;67.42
67545;BME280;54380;47.770;11.150;2022-11-12T06:55:21;96347.56;;;4.09;68.19
67545;BME280;54380;47.770;11.150;2022-11-12T06:58:06;96340.19;;;4.12;67.43
67545;BME280;54380;47.770;11.150;2022-11-12T07:00:51;96345.25;;;4.14;68.13
67545;BME280;54380;47.770;11.150;2022-11-12T07:03:37;96345.88;;;4.16;67.64
67545;BME280;54380;47.770;11.150;2022-11-12T07:06:23;96343.91;;;4.18;67.32
67545;BME280;54380;47.770;11.150;2022-11-12T07:09:08;96343.38;;;4.23;67.61
67545;BME280;54380;47.770;11.150;2022-11-12T07:11:54;96346.44;;;4.26;67.74
67545;BME280;54380;47.770;11.150;2022-11-12T07:14:39;96343.16;;;4.32;67.74
67545;BME280;54380;47.770;11.150;2022-11-12T07:17:24;96340.19;;;4.35;67.37
67545;BME280;54380;47.770;11.150;2022-11-12T07:20:10;96340.47;;;4.40;67.85
67545;BME280;54380;47.770;11.150;2022-11-12T07:22:59;96341.13;;;4.43;67.30
67545;BME280;54380;47.770;11.150;2022-11-12T07:25:45;96345.81;;;4.47;67.37
67545;BME280;54380;47.770;11.150;2022-11-12T07:28:30;96334.00;;;4.51;67.20
67545;BME280;54380;47.770;11.150;2022-11-12T07:31:16;96335.28;;;4.55;67.46
67545;BME280;54380;47.770;11.150;2022-11-12T07:34:01;96336.41;;;4.61;67.25
67545;BME280;54380;47.770;11.150;2022-11-12T07:36:47;96335.69;;;4.67;67.03
67545;BME280;54380;47.770;11.150;2022-11-12T07:39:36;96336.41;;;4.76;66.58
67545;BME280;54380;47.770;11.150;2022-11-12T07:42:21;96336.16;;;4.86;66.30
67545;BME280;54380;47.770;11.150;2022-11-12T07:45:07;96336.88;;;4.94;66.96
67545;BME280;54380;47.770;11.150;2022-11-12T07:53:56;96335.00;;;5.18;65.80
67545;BME280;54380;47.770;11.150;2022-11-12T07:56:45;96338.34;;;5.26;65.69
67545;BME280;54380;47.770;11.150;2022-11-12T07:59:30;96344.38;;;5.42;66.09
67545;BME280;54380;47.770;11.150;2022-11-12T08:02:16;96340.94;;;5.56;65.72
67545;BME280;54380;47.770;11.150;2022-11-12T08:05:01;96343.72;;;5.69;65.48
67545;BME280;54380;47.770;11.150;2022-11-12T08:07:47;96342.44;;;5.80;65.57
67545;BME280;54380;47.770;11.150;2022-11-12T08:10:32;96343.59;;;5.92;65.19
67545;BME280;54380;47.770;11.150;2022-11-12T08:13:18;96345.38;;;6.07;65.02
67545;BME280;54380;47.770;11.150;2022-11-12T08:16:04;96341.34;;;6.26;64.74
67545;BME280;54380;47.770;11.150;2022-11-12T08:18:49;96348.13;;;6.42;64.64
67545;BME280;54380;47.770;11.150;2022-11-12T08:21:34;96337.34;;;6.51;64.46
67545;BME280;54380;47.770;11.150;2022-11-12T08:24:20;96344.91;;;6.61;64.28
67545;BME280;54380;47.770;11.150;2022-11-12T08:27:05;96348.81;;;6.72;64.50
67545;BME280;54380;47.770;11.150;2022-11-12T08:29:52;96352.59;;;6.91;63.96
67545;BME280;54380;47.770;11.150;2022-11-12T08:32:37;96344.88;;;7.17;64.25
67545;BME280;54380;47.770;11.150;2022-11-12T08:35:23;96349.09;;;7.46;64.05
67545;BME280;54380;47.770;11.150;2022-11-12T08:38:08;96348.63;;;7.78;63.48
67545;BME280;54380;47.770;11.150;2022-11-12T08:40:58;96341.47;;;8.13;63.07
67545;BME280;54380;47.770;11.150;2022-11-12T08:43:43;96340.94;;;8.44;62.85
67545;BME280;54380;47.770;11.150;2022-11-12T08:46:30;96335.69;;;8.71;61.98
67545;BME280;54380;47.770;11.150;2022-11-12T08:49:15;96340.56;;;8.74;61.74
67545;BME280;54380;47.770;11.150;2022-11-12T08:52:00;96337.91;;;8.74;61.74
67545;BME280;54380;47.770;11.150;2022-11-12T08:54:45;96336.50;;;8.78;61.05
67545;BME280;54380;47.770;11.150;2022-11-12T08:57:30;96338.53;;;8.83;60.98
67545;BME280;54380;47.770;11.150;2022-11-12T09:00:16;96334.28;;;8.88;61.06
67545;BME280;54380;47.770;11.150;2022-11-12T09:03:03;96334.06;;;8.90;60.89
67545;BME280;54380;47.770;11.150;2022-11-12T09:05:49;96336.31;;;8.86;61.02
67545;BME280;54380;47.770;11.150;2022-11-12T09:08:34;96330.84;;;8.81;61.08
67545;BME280;54380;47.770;11.150;2022-11-12T09:11:20;96327.59;;;8.79;61.11
67545;BME280;54380;47.770;11.150;2022-11-12T09:14:05;96327.38;;;8.74;61.03
67545;BME280;54380;47.770;11.150;2022-11-12T09:16:51;96327.00;;;8.77;61.00
67545;BME280;54380;47.770;11.150;2022-11-12T09:19:37;96324.97;;;8.79;61.22
67545;BME280;54380;47.770;11.150;2022-11-12T09:22:27;96322.94;;;8.81;61.10
67545;BME280;54380;47.770;11.150;2022-11-12T09:25:12;96326.59;;;8.93;61.38
67545;BME280;54380;47.770;11.150;2022-11-12T09:28:01;96323.72;;;9.15;61.25
67545;BME280;54380;47.770;11.150;2022-11-12T09:30:50;96324.69;;;9.40;61.37
67545;BME280;54380;47.770;11.150;2022-11-12T09:33:35;96324.59;;;9.60;60.47
67545;BME280;54380;47.770;11.150;2022-11-12T09:36:21;96328.03;;;9.74;60.88
67545;BME280;54380;47.770;11.150;2022-11-12T09:39:06;96325.72;;;9.84;60.69
67545;BME280;54380;47.770;11.150;2022-11-12T09:41:51;96328.16;;;9.86;60.64
67545;BME280;54380;47.770;11.150;2022-11-12T09:44:43;96330.00;;;9.85;60.62
67545;BME280;54380;47.770;11.150;2022-11-12T09:47:31;96335.88;;;9.81;60.39
67545;BME280;54380;47.770;11.150;2022-11-12T09:50:19;96332.88;;;9.71;59.75
67545;BME280;54380;47.770;11.150;2022-11-12T09:53:10;96327.00;;;9.68;60.33
67545;BME280;54380;47.770;11.150;2022-11-12T09:55:56;96335.75;;;9.69;60.06
67545;BME280;54380;47.770;11.150;2022-11-12T09:58:42;96321.09;;;9.73;60.39
67545;BME280;54380;47.770;11.150;2022-11-12T10:01:35;96328.03;;;9.74;60.16
67545;BME280;54380;47.770;11.150;2022-11-12T10:04:27;96331.63;;;9.80;60.30
67545;BME280;54380;47.770;11.150;2022-11-12T10:07:18;96325.53;;;9.86;60.47
67545;BME280;54380;47.770;11.150;2022-11-12T10:10:10;96322.44;;;9.96;60.38
67545;BME280;54380;47.770;11.150;2022-11-12T10:13:01;96320.16;;;10.06;60.62
67545;BME280;54380;47.770;11.150;2022-11-12T10:15:58;96319.91;;;10.14;60.43
67545;BME280;54380;47.770;11.150;2022-11-12T10:22:19;96314.97;;;10.24;60.35
67545;BME280;54380;47.770;11.150;2022-11-12T10:25:14;96306.84;;;10.26;60.16
67545;BME280;54380;47.770;11.150;2022-11-12T10:28:00;96302.78;;;10.30;60.44
67545;BME280;54380;47.770;11.150;2022-11-12T10:30:45;96299.91;;;10.31;60.40
67545;BME280;54380;47.770;11.150;2022-11-12T10:33:31;96302.97;;;10.35;60.37
67545;BME280;54380;47.770;11.150;2022-11-12T10:36:22;96287.13;;;10.35;60.03
67545;BME280;54380;47.770;11.150;2022-11-12T10:39:08;96286.84;;;10.43;59.92
67545;BME280;54380;47.770;11.150;2022-11-12T10:42:02;96285.34;;;10.54;60.24
67545;BME280;54380;47.770;11.150;2022-11-12T10:44:47;96276.72;;;10.65;60.08
67545;BME280;54380;47.770;11.150;2022-11-12T10:47:34;96275.03;;;10.71;60.13
67545;BME280;54380;47.770;11.150;2022-11-12T10:50:28;96273.00;;;10.73;60.34
67545;BME280;54380;47.770;11.150;2022-11-12T10:53:14;96264.03;;;10.74;59.92
67545;BME280;54380;47.770;11.150;2022-11-12T10:56:22;96261.81;;;10.77;60.25
67545;BME280;54380;47.770;11.150;2022-11-12T10:59:09;96265.84;;;10.80;60.43
67545;BME280;54380;47.770;11.150;2022-11-12T11:01:57;96268.84;;;10.84;60.30
67545;BME280;54380;47.770;11.150;2022-11-12T11:04:43;96262.31;;;10.86;60.26
67545;BME280;54380;47.770;11.150;2022-11-12T11:07:29;96264.31;;;10.91;59.46
67545;BME280;54380;47.770;11.150;2022-11-12T11:10:21;96266.72;;;10.92;59.99
67545;BME280;54380;47.770;11.150;2022-11-12T11:13:07;96261.53;;;11.04;60.26
67545;BME280;54380;47.770;11.150;2022-11-12T11:15:58;96253.69;;;11.16;60.38
67545;BME280;54380;47.770;11.150;2022-11-12T11:18:45;96239.81;;;11.20;60.13
67545;BME280;54380;47.770;11.150;2022-11-12T11:21:33;96249.34;;;11.21;59.80
67545;BME280;54380;47.770;11.150;2022-11-12T11:24:35;96240.25;;;11.17;59.65
67545;BME280;54380;47.770;11.150;2022-11-12T11:27:26;96239.66;;;11.15;59.83
67545;BME280;54380;47.770;11.150;2022-11-12T11:30:12;96237.69;;;11.11;59.27
67545;BME280;54380;47.770;11.150;2022-11-12T11:33:11;96221.81;;;11.11;59.36
67545;BME280;54380;47.770;11.150;2022-11-12T11:36:05;96226.69;;;11.14;59.92
67545;BME280;54380;47.770;11.150;2022-11-12T11:38:55;96221.56;;;11.19;60.23
67545;BME280;54380;47.770;11.150;2022-11-12T11:41:46;96222.06;;;11.28;60.28
67545;BME280;54380;47.770;11.150;2022-11-12T11:44:35;96225.84;;;11.32;60.24
67545;BME280;54380;47.770;11.150;2022-11-12T11:47:27;96218.31;;;11.35;59.92
67545;BME280;54380;47.770;11.150;2022-11-12T11:50:41;96217.25;;;11.36;60.15
67545;BME280;54380;47.770;11.150;2022-11-12T11:53:32;96213.38;;;11.39;60.17
67545;BME280;54380;47.770;11.150;2022-11-12T11:56:23;96217.41;;;11.41;59.83
67545;BME280;54380;47.770;11.150;2022-11-12T11:59:15;96204.41;;;11.40;59.10
67545;BME280;54380;47.770;11.150;2022-11-12T12:02:18;96211.31;;;11.41;59.64
67545;BME280;54380;47.770;11.150;2022-11-12T12:05:09;96206.75;;;11.48;60.03
67545;BME280;54380;47.770;11.150;2022-11-12T12:08:09;96204.94;;;11.60;60.64
67545;BME280;54380;47.770;11.150;2022-11-12T12:10:56;96198.09;;;11.71;60.32
67545;BME280;54380;47.770;11.150;2022-11-12T12:13:57;96207.94;;;11.82;60.37
67545;BME280;54380;47.770;11.150;2022-11-12T12:16:51;96205.34;;;11.94;60.05
67545;BME280;54380;47.770;11.150;2022-11-12T12:19:40;96197.88;;;12.03;60.26
67545;BME280;54380;47.770;11.150;2022-11-12T12:22:34;96193.06;;;12.12;60.11
67545;BME280;54380;47.770;11.150;2022-11-12T12:25:26;96191.13;;;12.19;60.31
67545;BME280;54380;47.770;11.150;2022-11-12T12:28:15;96191.81;;;12.26;60.26
67545;BME280;54380;47.770;11.150;2022-11-12T12:31:04;96194.47;;;12.26;59.83
67545;BME280;54380;47.770;11.150;2022-11-12T12:33:51;96192.28;;;12.23;59.88
67545;BME280;54380;47.770;11.150;2022-11-12T12:36:38;96184.94;;;12.25;59.61
67545;BME280;54380;47.770;11.150;2022-11-12T12:39:25;96180.22;;;12.27;60.17
67545;BME280;54380;47.770;11.150;2022-11-12T12:42:13;96182.75;;;12.34;59.88
67545;BME280;54380;47.770;11.150;2022-11-12T12:45:09;;;;12.37;
67545;BME280;54380;47.770;11.150;2022-11-12T12:48:00;96168.25;;;12.36;59.20
67545;BME280;54380;47.770;11.150;2022-11-12T12:50:49;96167.06;;;12.32;59.40
67545;BME280;54380;47.770;11.150;2022-11-12T12:53:36;96165.13;;;12.27;59.55
67545;BME280;54380;47.770;11.150;2022-11-12T12:59:26;96151.41;;;12.19;59.96
67545;BME280;54380;47.770;11.150;2022-11-12T13:02:17;96152.00;;;12.21;60.01
67545;BME280;54380;47.770;11.150;2022-11-12T13:05:04;96149.13;;;12.22;60.06
67545;BME280;54380;47.770;11.150;2022-11-12T13:07:50;96152.00;;;12.21;60.27
67545;BME280;54380;47.770;11.150;2022-11-12T13:10:46;96153.50;;;12.17;59.75
67545;BME280;54380;47.770;11.150;2022-11-12T13:13:34;96148.88;;;12.12;59.73
67545;BME280;54380;47.770;11.150;2022-11-12T13:19:26;96146.56;;;12.04;59.98
67545;BME280;54380;47.770;11.150;2022-11-12T13:22:32;96152.31;;;12.01;60.09
67545;BME280;54380;47.770;11.150;2022-11-12T13:25:24;96147.72;;;11.96;59.81
67545;BME280;54380;47.770;11.150;2022-11-12T13:28:10;96148.38;;;11.92;59.85
67545;BME280;54380;47.770;11.150;2022-11-12T13:30:58;96143.78;;;11.87;60.23
67545;BME280;54380;47.770;11.150;2022-11-12T13:33:44;96143.97;;;11.85;60.23
67545;BME280;54380;47.770;11.150;2022-11-12T13:36:31;96143.41;;;11.83;60.54
67545;BME280;54380;47.770;11.150;2022-11-12T13:39:17;96151.34;;;11.83;60.48
67545;BME280;54380;47.770;11.150;2022-11-12T13:42:07;96144.44;;;11.82;60.46
67545;BME280;54380;47.770;11.150;2022-11-12T13:45:15;96134.28;;;11.79;60.42
67545;BME280;54380;47.770;11.150;2022-11-12T13:48:00;96142.13;;;11.74;60.26
67545;BME280;54380;47.770;11.150;2022-11-12T13:50:50;96132.81;;;11.72;60.32
67545;BME280;54380;47.770;11.150;2022-11-12T13:53:37;96132.44;;;11.68;60.46
67545;BME280;54380;47.770;11.150;2022-11-12T13:56:24;96135.53;;;11.65;60.28
67545;BME280;54380;47.770;11.150;2022-11-12T13:59:12;96131.72;;;11.61;60.49
67545;BME280;54380;47.770;11.150;2022-11-12T14:02:01;96125.88;;;11.59;60.01
67545;BME280;54380;47.770;11.150;2022-11-12T14:04:47;96130.56;;;11.57;59.94
67545;BME280;54380;47.770;11.150;2022-11-12T14:07:35;96123.09;;;11.54;60.19
67545;BME280;54380;47.770;11.150;2022-11-12T14:10:29;96130.66;;;11.50;60.16
67545;BME280;54380;47.770;11.150;2022-11-12T14:16:22;96117.88;;;11.47;60.37
67545;BME280;54380;47.770;11.150;2022-11-12T14:19:16;96110.41;;;11.44;60.06
67545;BME280;54380;47.770;11.150;2022-11-12T14:22:12;96112.47;;;11.42;60.53
67545;BME280;54380;47.770;11.150;2022-11-12T14:24:59;96108.44;;;11.39;60.42
67545;BME280;54380;47.770;11.150;2022-11-12T14:27:46;96118.19;;;11.39;60.48
67545;BME280;54380;47.770;11.150;2022-11-12T14:30:32;96109.47;;;11.38;60.48
67545;BME280;54380;47.770;11.150;2022-11-12T14:33:17;96103.59;;;11.36;60.36
67545;BME280;54380;47.770;11.150;2022-11-12T14:36:04;96101.63;;;11.32;60.54
67545;BME280;54380;47.770;11.150;2022-11-12T14:38:52;96097.59;;;11.29;60.43
67545;BME280;54380;47.770;11.150;2022-11-12T14:41:39;96095.19;;;11.28;60.36
67545;BME280;54380;47.770;11.150;2022-11-12T14:44:31;96093.00;;;11.25;60.45
67545;BME280;54380;47.770;11.150;2022-11-12T14:47:17;96100.91;;;11.25;60.86
67545;BME280;54380;47.770;11.150;2022-11-12T14:50:04;96088.97;;;11.22;61.15
67545;BME280;54380;47.770;11.150;2022-11-12T14:52:50;96089.97;;;11.21;60.83
67545;BME280;54380;47.770;11.150;2022-11-12T14:55:39;96085.13;;;11.18;61.12
67545;BME280;54380;47.770;11.150;2022-11-12T14:58:26;96080.31;;;11.15;61.13
67545;BME280;54380;47.770;11.150;2022-11-12T15:01:18;96072.03;;;11.11;61.08
67545;BME280;54380;47.770;11.150;2022-11-12T15:04:23;96075.09;;;11.08;60.95